Brooklyn Park, Minnesota
Current Conditions -  °F | °C
As of 8:32 PM on Friday 28 Nov 2014 (Local Time) from KMIC Reporting Station
Scattered Clouds Scattered Clouds  
Wind Chill: 17°   Ceiling: Unl
Heat Index: 24°   Visibility: 10mi
Dew Point: 17°   Wind: 6mph
Humidity: 75%   Direction: 110°ESE
Pressure: 29.77"   Gusts: NA
Location:  45.11°N, 93.35°W
Report Text: KMIC 290232Z 11005KT 10SM SCT018 M04/M08 A2977 RMK AO2 T10441083
Loading
Personal Weather Stations






























Interactive Weather Map New forecast layout! Learn more

10-Day Weather Forecast

Advertisements
Track Severe Weather on mobile